Latest Weather Observations for Camden

IDN60801

Issued at 9:02 am EDT Thursday 2 April 2015 (issued every 30 minutes, with the page automatically refreshed every 10 minutes)

About weather observations | Map of weather stations | Latest weather observations for NSW | Other Formats
Station Details ID: 068192 Name: CAMDEN AIRPORT AWS Lat: -34.04 Lon: 150.69 Height: 73.9 m
Data from the previous 72 hours. | See also: Recent months at Camden
Date/Time
EDT
Temp
°C
App
Temp
°C
Dew
Point
Rel
Hum
%
Delta-T
°C
Wind Press
QNH
hPa
Press
MSL
hPa
Rain
since 9 am
mm
Dir
 
Spd
km/h
Gust
km/h
Spd
kts
Gust
kts
02/09:00am 16.7 18.5 16.5 99 0.1 SE 2 6 1 3 1019.1 1018.9 0.2
02/08:38am 15.6 17.4 15.4 99 0.1 CALM 0 0 0 0 1019.1 1018.9 0.2
02/08:30am 15.8 17.6 15.6 99 0.1 CALM 0 0 0 0 1019.0 1018.8 0.2
02/08:20am 15.2 16.8 15.0 99 0.1 CALM 0 0 0 0 1018.9 1018.7 0.2
02/08:04am 15.1 16.7 14.9 99 0.1 CALM 0 0 0 0 1018.6 1018.4 0.2
02/08:03am 15.1 16.7 14.9 99 0.1 CALM 0 0 0 0 1018.6 1018.4 0.2
02/08:00am 15.0 16.6 14.8 99 0.1 CALM 0 0 0 0 1018.5 1018.3 0.2
02/07:52am 14.8 16.3 14.6 99 0.1 CALM 0 0 0 0 1018.4 1018.2 0.2
02/07:48am 14.7 16.1 14.5 99 0.1 CALM 0 0 0 0 1018.4 1018.2 0.2
02/07:30am 14.4 15.7 14.2 99 0.1 CALM 0 0 0 0 1018.3 1018.1 0.2
02/07:22am 14.6 16.0 14.4 99 0.1 CALM 0 0 0 0 1018.2 1018.0 0.2
02/07:00am 14.4 15.7 14.2 99 0.1 CALM 0 0 0 0 1018.2 1018.0 0.2
02/06:54am 14.4 15.7 14.2 99 0.1 CALM 0 0 0 0 1018.1 1017.9 0.2
02/06:48am 14.0 15.2 13.8 99 0.1 CALM 0 0 0 0 1018.1 1017.9 0.2
02/06:30am 14.6 16.0 14.4 99 0.1 CALM 0 0 0 0 1018.0 1017.8 0.2
02/06:28am 14.5 15.9 14.3 99 0.1 CALM 0 0 0 0 1018.0 1017.8 0.2
02/06:00am 14.4 15.7 14.2 99 0.1 CALM 0 0 0 0 1017.8 1017.6 0.2
02/05:56am 14.5 15.9 14.3 99 0.1 CALM 0 0 0 0 1017.8 1017.6 0.2
02/05:52am 14.8 16.3 14.6 99 0.1 CALM 0 0 0 0 1017.7 1017.5 0.2
02/05:46am 14.4 15.7 14.2 99 0.1 CALM 0 0 0 0 1017.7 1017.5 0.2
02/05:31am 14.4 15.7 14.2 99 0.1 CALM 0 0 0 0 1017.7 1017.5 0.2
02/05:30am 14.4 15.7 14.2 99 0.1 CALM 0 0 0 0 1017.7 1017.5 0.2
02/05:28am 14.6 16.0 14.4 99 0.1 CALM 0 0 0 0 1017.6 1017.4 0.2
02/05:27am 14.6 16.0 14.4 99 0.1 CALM 0 0 0 0 1017.6 1017.4 0.2
02/05:26am 14.7 16.1 14.5 99 0.1 CALM 0 0 0 0 1017.6 1017.4 0.2
02/05:25am 14.3 15.6 14.1 99 0.1 CALM 0 0 0 0 1017.6 1017.4 0.2
02/05:19am 14.8 16.3 14.6 99 0.1 CALM 0 0 0 0 1017.6 1017.4 0.2
02/05:18am 14.8 16.3 14.6 99 0.1 CALM 0 0 0 0 1017.6 1017.4 0.2
02/05:14am 14.6 16.0 14.4 99 0.1 CALM 0 0 0 0 1017.6 1017.4 0.2
02/05:13am 14.7 16.1 14.5 99 0.1 CALM 0 0 0 0 1017.6 1017.4 0.2
02/05:12am 14.7 16.1 14.5 99 0.1 CALM 0 0 0 0 1017.6 1017.4 0.2
02/05:10am 14.4 15.7 14.2 99 0.1 CALM 0 0 0 0 1017.6 1017.4 0.2
02/05:09am 14.5 15.9 14.3 99 0.1 CALM 0 0 0 0 1017.6 1017.4 0.2
02/05:03am 14.3 15.6 14.1 99 0.1 CALM 0 0 0 0 1017.6 1017.4 0.2
02/05:00am 14.7 16.1 14.5 99 0.1 CALM 0 0 0 0 1017.6 1017.4 0.2
02/04:30am 14.9 16.4 14.7 99 0.1 CALM 0 0 0 0 1017.7 1017.5 0.0
02/04:00am 14.8 16.3 14.6 99 0.1 CALM 0 0 0 0 1017.8 1017.6 0.0
02/03:53am 15.0 16.6 14.8 99 0.1 CALM 0 0 0 0 1017.9 1017.7 0.0
02/03:30am 14.7 16.1 14.4 98 0.2 CALM 0 0 0 0 1018.1 1017.9 0.0
02/03:00am 15.1 16.7 14.8 98 0.2 CALM 0 0 0 0 1018.4 1018.2 0.0
02/02:30am 15.5 17.2 15.2 98 0.2 CALM 0 0 0 0 1018.8 1018.6 0.0
02/02:00am 15.5 17.1 15.0 97 0.3 CALM 0 0 0 0 1019.2 1019.0 0.0
02/01:53am 15.5 17.1 15.0 97 0.3 CALM 0 0 0 0 1019.3 1019.1 0.0
02/01:41am 15.7 17.4 15.2 97 0.3 CALM 0 0 0 0 1019.4 1019.2 0.0
02/01:30am 15.9 17.7 15.4 97 0.3 CALM 0 0 0 0 1019.5 1019.3 0.0
02/01:14am 16.3 18.2 15.8 97 0.3 CALM 0 0 0 0 1019.6 1019.4 0.0
02/01:00am 16.2 18.0 15.6 96 0.4 CALM 0 0 0 0 1019.7 1019.5 0.0
02/12:30am 16.4 18.3 15.8 96 0.4 CALM 0 0 0 0 1019.9 1019.7 0.0
02/12:00am 16.9 18.9 16.1 95 0.5 CALM 0 0 0 0 1020.3 1020.1 0.0
 
Date/Time
EDT
Temp
°C
App
Temp
°C
Dew
Point
Rel
Hum
%
Delta-T
°C
Wind Press
QNH
hPa
Press
MSL
hPa
Rain
since 9 am
mm
Dir
 
Spd
km/h
Gust
km/h
Spd
kts
Gust
kts
01/11:30pm 17.1 17.9 16.3 95 0.5 S 7 9 4 5 1020.5 1020.4 0.0
01/11:00pm 17.3 19.1 15.6 90 1.0 CALM 0 0 0 0 1020.5 1020.4 0.0
01/10:30pm 18.2 20.2 16.0 87 1.3 CALM 0 0 0 0 1020.7 1020.6 0.0
01/10:00pm 18.8 21.0 16.6 87 1.3 CALM 0 0 0 0 1020.8 1020.7 0.0
01/09:30pm 19.4 21.6 16.4 83 1.8 CALM 0 0 0 0 1020.6 1020.5 0.0
01/09:00pm 19.9 20.3 16.3 80 2.2 NE 9 11 5 6 1020.3 1020.1 0.0
01/08:30pm 21.0 21.2 16.8 77 2.6 ENE 11 13 6 7 1020.2 1020.0 0.0
01/08:00pm 21.0 21.1 16.6 76 2.7 NE 11 13 6 7 1020.0 1019.8 0.0
01/07:30pm 22.0 21.5 16.9 73 3.1 NE 15 20 8 11 1019.7 1019.5 0.0
01/07:00pm 22.6 22.6 17.1 71 3.4 ENE 13 17 7 9 1019.4 1019.2 0.0
01/06:30pm 23.6 22.5 16.4 64 4.4 NE 17 22 9 12 1019.3 1019.1 0.0
01/06:00pm 25.0 23.2 15.6 56 5.7 NE 19 26 10 14 1019.2 1019.0 0.0
01/05:30pm 25.6 23.6 15.6 54 6.1 NNE 20 30 11 16 1019.2 1019.0 0.0
01/05:00pm 25.9 23.3 15.0 51 6.6 NNE 22 30 12 16 1019.4 1019.2 0.0
01/04:30pm 26.5 25.2 15.8 51 6.6 N 17 22 9 12 1019.4 1019.2 0.0
01/04:00pm 25.8 23.7 15.2 52 6.4 NNE 20 28 11 15 1019.7 1019.5 0.0
01/03:30pm 25.7 23.8 15.1 52 6.4 NNE 19 30 10 16 1020.0 1019.8 0.0
01/03:00pm 25.8 24.3 15.2 52 6.4 N 17 26 9 14 1020.4 1020.2 0.0
01/02:30pm 24.8 22.6 14.9 54 5.9 NNE 20 30 11 16 1021.1 1021.0 0.0
01/02:00pm 24.9 22.8 15.2 54 5.8 N 20 26 11 14 1021.8 1021.7 0.0
01/01:30pm 24.6 22.8 15.5 57 5.5 N 19 28 10 15 1022.4 1022.3 0.0
01/01:00pm 23.3 22.1 15.1 60 4.9 N 15 24 8 13 1023.0 1022.9 0.0
01/12:30pm 23.6 22.4 16.1 62 4.6 NE 17 26 9 14 1023.7 1023.6 0.0
01/12:00pm 22.3 21.4 15.9 67 3.8 NNE 15 20 8 11 1024.2 1024.1 0.0
01/11:30am 22.9 24.0 17.1 70 3.6 NNE 7 15 4 8 1024.6 1024.5 0.0
01/11:00am 20.9 22.9 16.1 74 2.9 CALM 0 0 0 0 1024.8 1024.7 0.0
01/10:30am 21.0 23.4 17.0 78 2.4 CALM 0 0 0 0 1025.1 1024.9 0.0
01/10:00am 19.8 20.8 16.4 81 2.0 S 6 7 3 4 1025.2 1025.0 0.0
01/09:30am 18.7 20.2 17.5 93 0.7 SE 6 7 3 4 1025.3 1025.1 0.0
01/09:00am 17.4 19.1 17.2 99 0.1 ESE 4 7 2 4 1025.2 1025.0 1.6
01/08:30am 16.8 19.0 16.6 99 0.1 CALM 0 0 0 0 1025.1 1024.9 1.6
01/08:00am 16.1 18.1 15.9 99 0.1 CALM 0 0 0 0 1024.9 1024.7 1.6
01/07:30am 15.5 15.9 15.3 99 0.1 ESE 7 9 4 5 1024.7 1024.5 1.6
01/07:14am 15.0 16.6 14.8 99 0.1 CALM 0 0 0 0 1024.6 1024.4 1.6
01/07:00am 14.3 15.6 14.1 99 0.1 CALM 0 0 0 0 1024.6 1024.4 1.6
01/06:41am 14.3 15.6 14.1 99 0.1 CALM 0 0 0 0 1024.6 1024.4 1.6
01/06:30am 14.6 16.0 14.4 99 0.1 CALM 0 0 0 0 1024.5 1024.3 1.6
01/06:00am 14.5 15.9 14.3 99 0.1 CALM 0 0 0 0 1024.3 1024.1 1.6
01/05:50am 14.5 15.9 14.3 99 0.1 CALM 0 0 0 0 1024.2 1024.0 1.6
01/05:30am 14.5 15.9 14.3 99 0.1 CALM 0 0 0 0 1024.1 1023.9 1.6
01/05:14am 14.9 15.7 14.7 99 0.1 S 4 7 2 4 1024.2 1024.0 1.6
01/05:00am 14.9 15.3 14.7 99 0.1 S 6 7 3 4 1024.3 1024.1 1.6
01/04:30am 15.1 16.3 14.9 99 0.1 S 2 7 1 4 1024.3 1024.1 1.6
01/04:00am 15.2 15.5 15.0 99 0.1 SSE 7 11 4 6 1024.4 1024.2 1.6
01/03:56am 15.2 15.1 15.0 99 0.1 SE 9 13 5 7 1024.5 1024.3 1.6
01/03:30am 15.3 15.6 15.1 99 0.1 ESE 7 9 4 5 1024.8 1024.6 1.2
01/03:21am 15.1 16.3 14.9 99 0.1 SE 2 7 1 4 1024.7 1024.5 0.8
01/03:06am 15.2 16.8 15.0 99 0.1 CALM 0 0 0 0 1024.7 1024.5 0.6
01/03:00am 15.1 16.7 14.9 99 0.1 CALM 0 2 0 1 1024.8 1024.6 0.4
01/02:30am 14.8 15.5 14.6 99 0.1 SE 4 7 2 4 1024.9 1024.7 0.4
01/02:00am 14.3 15.6 14.1 99 0.1 CALM 0 0 0 0 1025.3 1025.1 0.4
01/01:30am 14.5 15.1 14.3 99 0.1 SSE 4 7 2 4 1025.5 1025.3 0.4
01/01:00am 14.5 15.9 14.3 99 0.1 CALM 0 0 0 0 1025.7 1025.5 0.4
01/12:51am 14.4 15.7 14.2 99 0.1 CALM 0 0 0 0 1025.7 1025.5 0.4
01/12:33am 14.5 15.5 14.3 99 0.1 S 2 6 1 3 1025.9 1025.7 0.4
01/12:30am 14.4 14.9 14.1 98 0.2 S 4 7 2 4 1025.9 1025.7 0.4
01/12:00am 14.7 15.4 14.5 99 0.1 S 4 7 2 4 1026.2 1026.0 0.4
 
Date/Time
EDT
Temp
°C
App
Temp
°C
Dew
Point
Rel
Hum
%
Delta-T
°C
Wind Press
QNH
hPa
Press
MSL
hPa
Rain
since 9 am
mm
Dir
 
Spd
km/h
Gust
km/h
Spd
kts
Gust
kts
31/11:39pm 14.8 15.1 14.6 99 0.1 S 6 7 3 4 1026.2 1026.0 0.4
31/11:30pm 14.9 15.3 14.7 99 0.1 S 6 7 3 4 1026.2 1026.0 0.4
31/11:24pm 14.8 15.9 14.6 99 0.1 S 2 7 1 4 1026.3 1026.1 0.4
31/11:19pm 14.7 15.4 14.4 98 0.2 S 4 6 2 3 1026.3 1026.1 0.4
31/11:00pm 14.8 15.1 14.5 98 0.2 SSW 6 7 3 4 1026.5 1026.3 0.4
31/10:30pm 15.1 16.6 14.6 97 0.3 CALM 0 0 0 0 1026.7 1026.5 0.4
31/10:00pm 15.4 16.9 14.6 95 0.5 CALM 0 0 0 0 1026.6 1026.4 0.4
31/09:47pm 15.6 17.1 14.6 94 0.6 CALM 0 0 0 0 1026.6 1026.4 0.4
31/09:30pm 16.2 17.9 15.1 93 0.6 CALM 0 0 0 0 1026.6 1026.4 0.4
31/09:00pm 16.4 18.1 15.1 92 0.8 CALM 0 0 0 0 1026.5 1026.3 0.4
31/08:30pm 16.8 18.2 14.3 85 1.4 CALM 0 0 0 0 1026.1 1025.9 0.4
31/08:00pm 18.2 19.4 14.9 81 1.9 E 2 6 1 3 1025.7 1025.5 0.4
31/07:30pm 18.5 20.1 15.0 80 2.0 CALM 0 4 0 2 1025.4 1025.2 0.4
31/07:00pm 19.5 19.5 15.2 76 2.5 NE 9 15 5 8 1025.3 1025.1 0.4
31/06:30pm 20.0 21.0 16.4 80 2.2 SE 6 7 3 4 1025.3 1025.1 0.4
31/06:00pm 20.2 21.2 16.4 79 2.3 SSE 6 7 3 4 1025.1 1024.9 0.4
31/05:30pm 20.4 21.0 15.8 75 2.8 SE 7 11 4 6 1024.9 1024.7 0.4
31/05:00pm 20.9 21.5 16.9 78 2.4 SSE 9 15 5 8 1024.9 1024.7 0.4
31/04:30pm 18.9 18.6 16.5 86 1.4 SSE 13 17 7 9 1025.1 1024.9 0.4
31/04:00pm 20.8 19.9 15.8 73 3.0 SSE 15 22 8 12 1025.1 1024.9 0.4
31/03:30pm 21.5 21.8 16.0 71 3.3 ENE 9 13 5 7 1025.1 1024.9 0.4
31/03:00pm 21.8 21.3 15.9 69 3.5 SSE 13 17 7 9 1025.2 1025.0 0.4
31/02:30pm 20.7 21.1 17.3 81 2.1 ESE 11 17 6 9 1025.5 1025.3 0.2
31/02:00pm 19.2 19.2 16.2 83 1.8 E 11 20 6 11 1025.7 1025.5 0.2
31/01:30pm 20.3 18.3 14.9 71 3.2 ENE 19 30 10 16 1026.0 1025.8 0.0
31/01:00pm 22.5 21.4 14.4 60 4.8 ESE 13 19 7 10 1025.9 1025.7 0.0
31/12:30pm 23.6 23.5 13.8 54 5.7 E 7 11 4 6 1026.1 1025.9 0.0
31/12:00pm 22.6 22.9 15.0 62 4.5 NE 7 11 4 6 1026.5 1026.3 0.0
31/11:30am 23.1 23.3 14.7 59 5.0 ENE 7 11 4 6 1026.9 1026.7 0.0
31/11:00am 22.5 24.2 16.1 67 3.9 SSW 2 9 1 5 1027.1 1026.9 0.0
31/10:30am 21.5 22.6 16.7 74 2.9 SW 6 9 3 5 1027.2 1027.0 0.0
31/10:00am 19.4 21.4 16.1 81 2.0 CALM 0 0 0 0 1027.3 1027.1 0.0
31/09:30am 18.6 20.5 15.7 83 1.7 CALM 0 0 0 0 1027.0 1026.8 0.0
31/09:00am 17.8 18.5 15.6 87 1.3 SW 6 9 3 5 1026.7 1026.5 0.8
31/08:30am 16.9 17.7 15.9 94 0.6 WSW 6 9 3 5 1026.5 1026.3 0.8
31/08:00am 15.6 17.0 15.4 99 0.1 W 2 6 1 3 1026.2 1026.0 0.8
31/07:54am 15.3 16.6 15.1 99 0.1 WNW 2 6 1 3 1026.2 1026.0 0.8
31/07:30am 14.3 15.6 14.1 99 0.1 CALM 0 0 0 0 1025.9 1025.7 0.8
31/07:28am 14.3 15.6 14.1 99 0.1 CALM 0 0 0 0 1025.9 1025.7 0.8
31/07:01am 14.4 15.7 14.1 98 0.2 CALM 0 0 0 0 1025.5 1025.3 0.8
31/07:00am 14.1 15.3 13.8 98 0.2 CALM 0 0 0 0 1025.4 1025.2 0.8
31/06:30am 14.4 15.6 13.9 97 0.3 CALM 0 0 0 0 1025.1 1024.9 0.8
31/06:17am 14.5 15.8 14.0 97 0.3 CALM 0 0 0 0 1025.1 1024.9 0.8
31/06:00am 14.8 15.0 14.2 96 0.3 SSE 6 7 3 4 1024.9 1024.7 0.8
31/05:30am 15.1 16.2 14.5 96 0.3 S 2 6 1 3 1024.8 1024.6 0.8
31/05:00am 15.3 16.4 14.7 96 0.3 S 2 7 1 4 1024.7 1024.5 0.8
31/04:30am 15.6 17.2 15.0 96 0.3 CALM 0 4 0 2 1024.8 1024.6 0.8
31/04:00am 15.7 16.0 14.9 95 0.5 SSE 7 9 4 5 1025.0 1024.8 0.8
31/03:30am 16.1 16.1 15.3 95 0.5 S 9 13 5 7 1025.1 1024.9 0.8
31/03:00am 16.4 16.6 15.8 96 0.4 S 9 11 5 6 1025.3 1025.1 0.8
31/02:30am 16.9 17.9 16.4 97 0.3 WNW 6 7 3 4 1025.5 1025.3 0.6
31/02:00am 16.9 18.0 16.6 98 0.2 N 6 7 3 4 1025.9 1025.7 0.6
31/01:30am 16.4 18.4 15.9 97 0.3 CALM 0 0 0 0 1025.8 1025.6 0.2
31/01:00am 16.0 17.8 15.4 96 0.3 CALM 0 0 0 0 1025.8 1025.6 0.0
31/12:30am 16.1 16.5 15.3 95 0.5 WSW 7 11 4 6 1025.5 1025.3 0.0
31/12:00am 16.7 18.5 15.4 92 0.8 CALM 0 0 0 0 1025.6 1025.4 0.0
 
Date/Time
EDT
Temp
°C
App
Temp
°C
Dew
Point
Rel
Hum
%
Delta-T
°C
Wind Press
QNH
hPa
Press
MSL
hPa
Rain
since 9 am
mm
Dir
 
Spd
km/h
Gust
km/h
Spd
kts
Gust
kts
30/11:30pm 17.3 19.0 15.3 88 1.2 CALM 0 0 0 0 1025.6 1025.4 0.0
30/11:00pm 17.5 19.3 15.5 88 1.2 CALM 0 0 0 0 1025.5 1025.3 0.0
30/10:30pm 17.8 18.6 15.8 88 1.2 SSW 6 7 3 4 1025.4 1025.2 0.0
30/10:00pm 18.2 20.4 16.5 90 1.0 CALM 0 0 0 0 1025.6 1025.4 0.0
30/09:30pm 18.3 20.3 16.1 87 1.3 CALM 0 0 0 0 1025.5 1025.3 0.0
30/09:00pm 18.6 20.5 15.8 84 1.7 CALM 0 0 0 0 1025.4 1025.2 0.0
30/08:30pm 19.1 21.0 15.8 81 2.0 CALM 0 0 0 0 1025.2 1025.0 0.0
30/08:00pm 19.3 21.3 16.0 81 2.0 CALM 0 2 0 1 1024.8 1024.6 0.0
30/07:30pm 19.6 20.7 15.7 78 2.3 W 4 7 2 4 1024.6 1024.4 0.0
30/07:00pm 20.4 21.8 14.5 69 3.4 CALM 0 0 0 0 1024.2 1024.0 0.0
30/06:30pm 21.2 21.2 14.1 64 4.1 E 7 11 4 6 1023.9 1023.7 0.0
30/06:00pm 21.6 21.4 14.7 65 4.1 E 9 17 5 9 1023.6 1023.4 0.0
30/05:30pm 22.0 20.6 14.4 62 4.5 ENE 15 20 8 11 1023.1 1022.9 0.0
30/05:00pm 23.0 21.8 12.9 53 5.8 ENE 11 17 6 9 1022.7 1022.5 0.0
30/04:30pm 23.5 22.9 13.4 53 5.9 E 9 13 5 7 1022.3 1022.1 0.0
30/04:00pm 24.8 23.5 12.4 46 7.1 NE 11 17 6 9 1022.3 1022.1 0.0
30/03:30pm 24.2 22.2 11.5 45 7.2 ENE 13 17 7 9 1022.4 1022.2 0.0
30/03:00pm 23.7 22.1 11.4 46 6.9 ENE 11 15 6 8 1022.5 1022.3 0.0
30/02:30pm 23.8 21.9 11.8 47 6.8 ENE 13 17 7 9 1022.6 1022.4 0.0
30/02:00pm 24.7 23.7 14.5 53 6.1 E 13 20 7 11 1022.8 1022.6 0.0
30/01:30pm 24.8 24.0 14.0 51 6.4 SE 11 19 6 10 1022.9 1022.7 0.0
30/01:00pm 24.4 24.2 14.8 55 5.7 ESE 9 17 5 9 1023.4 1023.2 0.0
30/12:30pm 23.4 24.1 16.0 63 4.5 SSE 7 17 4 9 1023.8 1023.6 0.0
30/12:00pm 22.0 23.2 14.9 64 4.2 NNW 2 7 1 4 1024.3 1024.1 0.0
30/11:30am 21.3 22.2 15.2 68 3.6 NW 4 7 2 4 1024.7 1024.5 0.0
30/11:00am 20.4 20.1 15.4 73 3.0 NNW 11 15 6 8 1024.7 1024.5 0.0
30/10:30am 20.2 19.9 15.4 74 2.8 NNW 11 15 6 8 1024.6 1024.4 0.0
30/10:00am 19.8 20.2 15.4 76 2.6 ESE 7 13 4 7 1024.1 1023.9 0.0
30/09:30am 17.8 17.4 16.3 91 0.9 SSE 13 17 7 9 1024.0 1023.8 0.0

Other Formats:

Comma delimited format used in spreadsheet applications
http://www.bom.gov.au/fwo/IDN60801/IDN60801.94755.axf

JavaScript Object Notation format (JSON) in row-major order
http://www.bom.gov.au/fwo/IDN60801/IDN60801.94755.json